sensor_id;sensor_type;location;lat;lon;timestamp;pressure;altitude;pressure_sealevel;temperature;humidity
11830;BME280;5972;42.134;24.718;2023-05-24T00:01:47;99373.22;;;16.95;100.00
11830;BME280;5972;42.134;24.718;2023-05-24T00:04:15;99364.22;;;16.77;100.00
11830;BME280;5972;42.134;24.718;2023-05-24T00:06:43;99360.69;;;16.73;100.00
11830;BME280;5972;42.134;24.718;2023-05-24T00:09:10;99370.06;;;16.79;100.00
11830;BME280;5972;42.134;24.718;2023-05-24T00:11:37;99370.06;;;16.68;100.00
11830;BME280;5972;42.134;24.718;2023-05-24T00:14:06;99367.69;;;16.67;100.00
11830;BME280;5972;42.134;24.718;2023-05-24T00:16:32;99365.75;;;16.67;100.00
11830;BME280;5972;42.134;24.718;2023-05-24T00:19:00;99373.56;;;16.61;100.00
11830;BME280;5972;42.134;24.718;2023-05-24T00:21:28;99375.13;;;16.62;100.00
11830;BME280;5972;42.134;24.718;2023-05-24T00:23:56;99343.09;;;16.49;100.00
11830;BME280;5972;42.134;24.718;2023-05-24T00:26:23;99374.75;;;16.60;100.00
11830;BME280;5972;42.134;24.718;2023-05-24T00:28:50;99371.22;;;16.60;100.00
11830;BME280;5972;42.134;24.718;2023-05-24T00:31:17;99360.25;;;16.49;100.00
11830;BME280;5972;42.134;24.718;2023-05-24T00:33:44;99371.19;;;16.49;100.00
11830;BME280;5972;42.134;24.718;2023-05-24T00:36:10;99356.28;;;16.29;100.00
11830;BME280;5972;42.134;24.718;2023-05-24T00:38:38;99359.78;;;16.33;100.00
11830;BME280;5972;42.134;24.718;2023-05-24T00:41:05;99355.09;;;16.19;100.00
11830;BME280;5972;42.134;24.718;2023-05-24T00:43:32;99343.38;;;16.15;100.00
11830;BME280;5972;42.134;24.718;2023-05-24T00:46:12;99359.78;;;16.33;100.00
11830;BME280;5972;42.134;24.718;2023-05-24T00:48:40;99378.91;;;16.26;100.00
11830;BME280;5972;42.134;24.718;2023-05-24T00:51:07;99346.06;;;16.08;100.00
11830;BME280;5972;42.134;24.718;2023-05-24T00:53:35;99366.03;;;16.27;100.00
11830;BME280;5972;42.134;24.718;2023-05-24T00:56:04;99365.97;;;16.12;100.00
11830;BME280;5972;42.134;24.718;2023-05-24T00:58:32;99359.34;;;16.17;100.00
11830;BME280;5972;42.134;24.718;2023-05-24T01:01:00;99339.84;;;16.04;100.00
11830;BME280;5972;42.134;24.718;2023-05-24T01:03:28;99343.72;;;16.07;100.00
11830;BME280;5972;42.134;24.718;2023-05-24T01:05:55;99347.25;;;16.07;100.00
11830;BME280;5972;42.134;24.718;2023-05-24T01:08:38;99348.44;;;16.17;100.00
11830;BME280;5972;42.134;24.718;2023-05-24T01:11:15;99348.84;;;16.19;100.00
11830;BME280;5972;42.134;24.718;2023-05-24T01:13:47;99344.16;;;16.16;100.00
11830;BME280;5972;42.134;24.718;2023-05-24T01:16:22;99346.06;;;16.12;100.00
11830;BME280;5972;42.134;24.718;2023-05-24T01:18:53;99344.53;;;16.14;100.00
11830;BME280;5972;42.134;24.718;2023-05-24T01:21:34;99337.88;;;16.08;100.00
11830;BME280;5972;42.134;24.718;2023-05-24T01:24:15;99327.69;;;15.91;100.00
11830;BME280;5972;42.134;24.718;2023-05-24T01:27:04;99323.00;;;15.92;100.00
11830;BME280;5972;42.134;24.718;2023-05-24T01:29:33;99339.78;;;15.97;100.00
11830;BME280;5972;42.134;24.718;2023-05-24T01:32:01;99290.94;;;15.67;100.00
11830;BME280;5972;42.134;24.718;2023-05-24T01:34:28;99335.50;;;16.00;100.00
11830;BME280;5972;42.134;24.718;2023-05-24T01:36:55;99336.69;;;16.02;100.00
11830;BME280;5972;42.134;24.718;2023-05-24T01:39:24;99343.69;;;16.00;100.00
11830;BME280;5972;42.134;24.718;2023-05-24T01:42:00;99324.53;;;15.89;100.00
11830;BME280;5972;42.134;24.718;2023-05-24T01:44:36;99343.34;;;16.05;100.00
11830;BME280;5972;42.134;24.718;2023-05-24T01:50:06;99337.84;;;15.98;100.00
11830;BME280;5972;42.134;24.718;2023-05-24T01:52:35;99313.97;;;15.73;100.00
11830;BME280;5972;42.134;24.718;2023-05-24T01:55:04;99337.44;;;15.92;100.00
11830;BME280;5972;42.134;24.718;2023-05-24T01:57:33;99331.53;;;15.83;100.00
11830;BME280;5972;42.134;24.718;2023-05-24T02:00:03;99328.78;;;15.76;100.00
11830;BME280;5972;42.134;24.718;2023-05-24T02:02:31;99343.28;;;15.87;100.00
11830;BME280;5972;42.134;24.718;2023-05-24T02:04:58;99350.25;;;15.85;100.00
11830;BME280;5972;42.134;24.718;2023-05-24T02:07:25;99314.69;;;15.67;100.00
11830;BME280;5972;42.134;24.718;2023-05-24T02:09:52;99346.00;;;15.87;100.00
11830;BME280;5972;42.134;24.718;2023-05-24T02:12:18;99352.97;;;15.85;100.00
11830;BME280;5972;42.134;24.718;2023-05-24T02:14:46;99359.16;;;15.71;100.00
11830;BME280;5972;42.134;24.718;2023-05-24T02:17:16;99357.56;;;15.66;100.00
11830;BME280;5972;42.134;24.718;2023-05-24T02:19:45;99364.16;;;15.55;100.00
11830;BME280;5972;42.134;24.718;2023-05-24T02:22:12;99372.25;;;15.48;100.00
11830;BME280;5972;42.134;24.718;2023-05-24T02:24:39;99367.94;;;15.47;100.00
11830;BME280;5972;42.134;24.718;2023-05-24T02:27:05;99369.09;;;15.42;100.00
11830;BME280;5972;42.134;24.718;2023-05-24T02:29:32;99374.09;;;15.36;100.00
11830;BME280;5972;42.134;24.718;2023-05-24T02:31:59;99350.59;;;15.18;100.00
11830;BME280;5972;42.134;24.718;2023-05-24T02:34:27;99380.72;;;15.39;100.00
11830;BME280;5972;42.134;24.718;2023-05-24T02:36:54;99361.94;;;15.23;100.00
11830;BME280;5972;42.134;24.718;2023-05-24T02:39:21;99375.22;;;15.28;100.00
11830;BME280;5972;42.134;24.718;2023-05-24T02:41:48;99375.19;;;15.25;100.00
11830;BME280;5972;42.134;24.718;2023-05-24T02:44:14;99387.19;;;15.17;100.00
11830;BME280;5972;42.134;24.718;2023-05-24T02:46:41;99382.22;;;15.26;100.00
11830;BME280;5972;42.134;24.718;2023-05-24T02:49:08;99395.50;;;15.34;100.00
11830;BME280;5972;42.134;24.718;2023-05-24T02:51:36;99394.72;;;15.34;100.00
11830;BME280;5972;42.134;24.718;2023-05-24T02:54:03;99399.38;;;15.33;100.00
11830;BME280;5972;42.134;24.718;2023-05-24T02:56:30;99401.16;;;15.12;100.00
11830;BME280;5972;42.134;24.718;2023-05-24T02:58:57;99400.03;;;15.16;100.00
11830;BME280;5972;42.134;24.718;2023-05-24T03:01:24;99405.09;;;15.14;100.00
11830;BME280;5972;42.134;24.718;2023-05-24T03:03:50;99407.41;;;15.16;100.00
11830;BME280;5972;42.134;24.718;2023-05-24T03:06:17;99381.25;;;15.04;100.00
11830;BME280;5972;42.134;24.718;2023-05-24T03:08:45;99391.19;;;15.26;100.00
11830;BME280;5972;42.134;24.718;2023-05-24T03:11:13;99393.13;;;15.29;100.00
11830;BME280;5972;42.134;24.718;2023-05-24T03:13:47;99389.63;;;15.32;100.00
11830;BME280;5972;42.134;24.718;2023-05-24T03:16:14;99402.34;;;15.58;100.00
11830;BME280;5972;42.134;24.718;2023-05-24T03:18:42;99396.09;;;15.58;100.00
11830;BME280;5972;42.134;24.718;2023-05-24T03:21:08;99394.53;;;15.57;100.00
11830;BME280;5972;42.134;24.718;2023-05-24T03:23:35;99393.38;;;15.58;100.00
11830;BME280;5972;42.134;24.718;2023-05-24T03:26:03;99405.19;;;15.83;100.00
11830;BME280;5972;42.134;24.718;2023-05-24T03:28:32;99355.25;;;15.68;100.00
11830;BME280;5972;42.134;24.718;2023-05-24T03:31:00;99410.38;;;16.02;100.00
11830;BME280;5972;42.134;24.718;2023-05-24T03:33:26;99410.75;;;16.01;100.00
11830;BME280;5972;42.134;24.718;2023-05-24T03:35:53;99413.91;;;16.03;100.00
11830;BME280;5972;42.134;24.718;2023-05-24T03:38:20;99404.09;;;15.95;100.00
11830;BME280;5972;42.134;24.718;2023-05-24T03:40:47;99408.47;;;16.10;100.00
11830;BME280;5972;42.134;24.718;2023-05-24T03:43:15;99390.13;;;16.07;100.00
11830;BME280;5972;42.134;24.718;2023-05-24T03:45:42;99397.88;;;15.98;100.00
11830;BME280;5972;42.134;24.718;2023-05-24T03:48:09;99406.25;;;16.40;100.00
11830;BME280;5972;42.134;24.718;2023-05-24T03:50:36;99403.16;;;16.49;100.00
11830;BME280;5972;42.134;24.718;2023-05-24T03:53:02;99404.81;;;16.78;100.00
11830;BME280;5972;42.134;24.718;2023-05-24T03:55:29;99372.41;;;16.70;100.00
11830;BME280;5972;42.134;24.718;2023-05-24T03:57:56;99404.84;;;17.31;100.00
11830;BME280;5972;42.134;24.718;2023-05-24T04:00:24;99415.78;;;17.49;100.00
11830;BME280;5972;42.134;24.718;2023-05-24T04:02:53;99413.44;;;17.76;100.00
11830;BME280;5972;42.134;24.718;2023-05-24T04:05:20;99412.56;;;18.11;100.00
11830;BME280;5972;42.134;24.718;2023-05-24T04:07:51;99416.28;;;18.52;100.00
11830;BME280;5972;42.134;24.718;2023-05-24T04:10:18;99405.22;;;18.74;100.00
11830;BME280;5972;42.134;24.718;2023-05-24T04:12:45;99424.50;;;19.22;100.00
11830;BME280;5972;42.134;24.718;2023-05-24T04:15:11;99404.78;;;19.37;100.00
11830;BME280;5972;42.134;24.718;2023-05-24T04:17:41;99429.09;;;19.80;100.00
11830;BME280;5972;42.134;24.718;2023-05-24T04:20:08;99430.13;;;19.93;100.00
11830;BME280;5972;42.134;24.718;2023-05-24T04:22:38;99422.53;;;20.08;100.00
11830;BME280;5972;42.134;24.718;2023-05-24T04:25:06;99433.47;;;20.45;100.00
11830;BME280;5972;42.134;24.718;2023-05-24T04:27:34;99433.22;;;20.66;98.66
11830;BME280;5972;42.134;24.718;2023-05-24T04:30:00;99433.63;;;20.92;97.94
11830;BME280;5972;42.134;24.718;2023-05-24T04:32:27;99436.63;;;20.74;100.00
11830;BME280;5972;42.134;24.718;2023-05-24T04:34:56;99429.91;;;20.48;100.00
11830;BME280;5972;42.134;24.718;2023-05-24T04:37:23;99425.13;;;20.56;100.00
11830;BME280;5972;42.134;24.718;2023-05-24T04:39:50;99426.78;;;21.53;93.51
11830;BME280;5972;42.134;24.718;2023-05-24T04:42:17;99430.59;;;22.82;80.72
11830;BME280;5972;42.134;24.718;2023-05-24T04:44:44;99426.53;;;23.99;67.31
11830;BME280;5972;42.134;24.718;2023-05-24T04:47:10;99411.25;;;24.24;60.88
11830;BME280;5972;42.134;24.718;2023-05-24T04:49:38;99401.38;;;24.77;56.09
11830;BME280;5972;42.134;24.718;2023-05-24T04:52:06;99399.66;;;25.90;52.76
11830;BME280;5972;42.134;24.718;2023-05-24T04:54:33;99405.09;;;26.68;49.46
11830;BME280;5972;42.134;24.718;2023-05-24T04:57:00;99403.38;;;27.50;46.77
11830;BME280;5972;42.134;24.718;2023-05-24T04:59:27;99404.16;;;27.96;44.69
11830;BME280;5972;42.134;24.718;2023-05-24T05:01:54;99394.56;;;28.85;43.04
11830;BME280;5972;42.134;24.718;2023-05-24T05:04:21;99394.44;;;28.79;42.34
11830;BME280;5972;42.134;24.718;2023-05-24T05:06:48;99413.91;;;29.69;40.63
11830;BME280;5972;42.134;24.718;2023-05-24T05:09:19;99407.50;;;30.31;39.37
11830;BME280;5972;42.134;24.718;2023-05-24T05:11:47;99419.59;;;30.86;38.25
11830;BME280;5972;42.134;24.718;2023-05-24T05:14:14;99413.25;;;30.71;37.62
11830;BME280;5972;42.134;24.718;2023-05-24T05:16:41;99423.91;;;31.37;37.33
11830;BME280;5972;42.134;24.718;2023-05-24T05:19:10;99420.75;;;31.64;36.53
11830;BME280;5972;42.134;24.718;2023-05-24T05:21:36;99411.72;;;31.75;35.94
11830;BME280;5972;42.134;24.718;2023-05-24T05:24:04;99424.00;;;31.83;35.79
11830;BME280;5972;42.134;24.718;2023-05-24T05:26:33;99409.91;;;31.17;35.72
11830;BME280;5972;42.134;24.718;2023-05-24T05:29:00;99410.88;;;30.49;37.35
11830;BME280;5972;42.134;24.718;2023-05-24T05:31:28;99427.53;;;28.86;41.03
11830;BME280;5972;42.134;24.718;2023-05-24T05:33:55;99433.50;;;27.70;43.43
11830;BME280;5972;42.134;24.718;2023-05-24T05:36:22;99431.00;;;27.05;44.08
11830;BME280;5972;42.134;24.718;2023-05-24T05:38:49;99438.75;;;26.26;47.83
11830;BME280;5972;42.134;24.718;2023-05-24T05:41:16;99437.28;;;25.18;52.39
11830;BME280;5972;42.134;24.718;2023-05-24T05:43:44;99439.63;;;25.54;50.38
11830;BME280;5972;42.134;24.718;2023-05-24T05:46:11;99440.72;;;25.70;51.90
11830;BME280;5972;42.134;24.718;2023-05-24T05:48:39;99435.28;;;26.35;48.92
11830;BME280;5972;42.134;24.718;2023-05-24T05:51:06;99428.25;;;27.05;46.83
11830;BME280;5972;42.134;24.718;2023-05-24T05:53:35;99436.63;;;27.23;46.85
11830;BME280;5972;42.134;24.718;2023-05-24T05:56:02;99436.78;;;27.96;46.28
11830;BME280;5972;42.134;24.718;2023-05-24T05:58:29;99434.53;;;28.73;44.20
11830;BME280;5972;42.134;24.718;2023-05-24T06:00:57;99434.47;;;28.13;44.84
11830;BME280;5972;42.134;24.718;2023-05-24T06:03:23;99440.31;;;29.26;41.89
11830;BME280;5972;42.134;24.718;2023-05-24T06:05:50;99443.06;;;31.44;38.92
11830;BME280;5972;42.134;24.718;2023-05-24T06:08:17;99448.72;;;32.31;36.94
11830;BME280;5972;42.134;24.718;2023-05-24T06:10:44;99448.47;;;32.86;35.28
11830;BME280;5972;42.134;24.718;2023-05-24T06:13:10;99450.50;;;33.65;34.04
11830;BME280;5972;42.134;24.718;2023-05-24T06:15:37;99449.34;;;33.83;32.99
11830;BME280;5972;42.134;24.718;2023-05-24T06:18:05;99461.25;;;32.92;34.80
11830;BME280;5972;42.134;24.718;2023-05-24T06:20:32;99462.13;;;31.60;36.50
11830;BME280;5972;42.134;24.718;2023-05-24T06:22:59;99456.34;;;29.88;38.90
11830;BME280;5972;42.134;24.718;2023-05-24T06:25:26;99459.03;;;28.23;41.63
11830;BME280;5972;42.134;24.718;2023-05-24T06:27:55;99464.56;;;27.19;44.58
11830;BME280;5972;42.134;24.718;2023-05-24T06:30:21;99460.25;;;26.87;46.12
11830;BME280;5972;42.134;24.718;2023-05-24T06:32:48;99445.16;;;25.80;50.03
11830;BME280;5972;42.134;24.718;2023-05-24T06:35:16;99461.78;;;24.66;55.33
11830;BME280;5972;42.134;24.718;2023-05-24T06:37:43;99459.63;;;25.11;55.94
11830;BME280;5972;42.134;24.718;2023-05-24T06:40:11;99460.81;;;25.36;55.48
11830;BME280;5972;42.134;24.718;2023-05-24T06:42:38;99455.03;;;25.55;56.05
11830;BME280;5972;42.134;24.718;2023-05-24T06:45:05;99453.50;;;25.67;54.88
11830;BME280;5972;42.134;24.718;2023-05-24T06:47:33;99434.19;;;25.63;54.89
11830;BME280;5972;42.134;24.718;2023-05-24T06:50:01;99459.25;;;25.73;54.23
11830;BME280;5972;42.134;24.718;2023-05-24T06:52:29;99450.13;;;25.12;55.01
11830;BME280;5972;42.134;24.718;2023-05-24T06:54:57;99445.69;;;24.90;58.52
11830;BME280;5972;42.134;24.718;2023-05-24T06:57:23;99457.66;;;24.45;60.19
11830;BME280;5972;42.134;24.718;2023-05-24T06:59:51;99453.34;;;24.44;60.44
11830;BME280;5972;42.134;24.718;2023-05-24T07:02:18;99450.28;;;24.26;61.79
11830;BME280;5972;42.134;24.718;2023-05-24T07:04:48;99447.63;;;24.22;61.14
11830;BME280;5972;42.134;24.718;2023-05-24T07:07:15;99451.25;;;24.19;63.55
11830;BME280;5972;42.134;24.718;2023-05-24T07:09:43;99445.72;;;24.19;63.29
11830;BME280;5972;42.134;24.718;2023-05-24T07:12:10;99443.44;;;24.30;64.09
11830;BME280;5972;42.134;24.718;2023-05-24T07:14:37;99440.16;;;24.07;64.90
11830;BME280;5972;42.134;24.718;2023-05-24T07:17:04;99440.69;;;24.30;64.10
11830;BME280;5972;42.134;24.718;2023-05-24T07:19:31;99408.19;;;24.47;63.15
11830;BME280;5972;42.134;24.718;2023-05-24T07:22:00;99434.47;;;24.80;62.50
11830;BME280;5972;42.134;24.718;2023-05-24T07:24:27;99427.00;;;24.52;64.59
11830;BME280;5972;42.134;24.718;2023-05-24T07:26:55;99415.25;;;24.35;65.28
11830;BME280;5972;42.134;24.718;2023-05-24T07:29:22;99430.47;;;24.56;64.98
11830;BME280;5972;42.134;24.718;2023-05-24T07:31:50;99416.75;;;24.65;61.75
11830;BME280;5972;42.134;24.718;2023-05-24T07:34:18;99430.19;;;25.05;59.74
11830;BME280;5972;42.134;24.718;2023-05-24T07:36:46;99433.25;;;24.81;58.05
11830;BME280;5972;42.134;24.718;2023-05-24T07:39:13;99429.84;;;25.03;58.87
11830;BME280;5972;42.134;24.718;2023-05-24T07:41:41;99431.78;;;24.64;59.73
11830;BME280;5972;42.134;24.718;2023-05-24T07:44:09;99432.53;;;24.39;63.13
11830;BME280;5972;42.134;24.718;2023-05-24T07:46:36;99439.44;;;24.73;61.83
11830;BME280;5972;42.134;24.718;2023-05-24T07:49:03;99432.16;;;24.79;59.70
11830;BME280;5972;42.134;24.718;2023-05-24T07:51:29;99423.97;;;25.13;57.51
11830;BME280;5972;42.134;24.718;2023-05-24T07:53:58;99426.50;;;25.20;56.91
11830;BME280;5972;42.134;24.718;2023-05-24T07:56:25;99422.53;;;24.00;62.88
11830;BME280;5972;42.134;24.718;2023-05-24T07:58:51;99422.56;;;24.29;64.94
11830;BME280;5972;42.134;24.718;2023-05-24T08:01:24;99429.16;;;24.86;62.90
11830;BME280;5972;42.134;24.718;2023-05-24T08:03:53;99425.72;;;25.20;56.57
11830;BME280;5972;42.134;24.718;2023-05-24T08:06:20;99421.16;;;25.51;55.52
11830;BME280;5972;42.134;24.718;2023-05-24T08:08:48;99431.13;;;25.61;53.87
11830;BME280;5972;42.134;24.718;2023-05-24T08:11:15;99432.75;;;25.72;52.97
11830;BME280;5972;42.134;24.718;2023-05-24T08:13:42;99425.44;;;25.52;53.77
11830;BME280;5972;42.134;24.718;2023-05-24T08:16:09;99428.66;;;25.63;52.93
11830;BME280;5972;42.134;24.718;2023-05-24T08:18:37;99426.28;;;25.75;53.53
11830;BME280;5972;42.134;24.718;2023-05-24T08:21:04;99420.94;;;25.80;51.11
11830;BME280;5972;42.134;24.718;2023-05-24T08:23:31;99406.38;;;25.67;51.17
11830;BME280;5972;42.134;24.718;2023-05-24T08:25:58;99427.03;;;25.88;51.32
11830;BME280;5972;42.134;24.718;2023-05-24T08:28:25;99420.66;;;26.00;52.26
11830;BME280;5972;42.134;24.718;2023-05-24T08:30:52;99430.00;;;26.15;51.35
11830;BME280;5972;42.134;24.718;2023-05-24T08:33:19;99431.03;;;26.08;50.62
11830;BME280;5972;42.134;24.718;2023-05-24T08:35:48;99416.72;;;26.10;50.50
11830;BME280;5972;42.134;24.718;2023-05-24T08:38:15;99419.13;;;26.21;50.46
11830;BME280;5972;42.134;24.718;2023-05-24T08:40:42;99427.41;;;26.33;49.62
11830;BME280;5972;42.134;24.718;2023-05-24T08:43:09;99430.84;;;26.68;49.63
11830;BME280;5972;42.134;24.718;2023-05-24T08:45:37;99422.97;;;26.98;47.61
11830;BME280;5972;42.134;24.718;2023-05-24T08:48:05;99426.91;;;27.18;47.10
11830;BME280;5972;42.134;24.718;2023-05-24T08:50:32;99428.75;;;27.21;46.03
11830;BME280;5972;42.134;24.718;2023-05-24T08:53:01;99425.25;;;27.39;45.46
11830;BME280;5972;42.134;24.718;2023-05-24T08:55:29;99424.16;;;27.27;46.03
11830;BME280;5972;42.134;24.718;2023-05-24T08:57:56;99423.09;;;27.43;45.97
11830;BME280;5972;42.134;24.718;2023-05-24T09:00:24;99426.69;;;27.04;45.24
11830;BME280;5972;42.134;24.718;2023-05-24T09:02:51;99426.53;;;27.47;45.00
11830;BME280;5972;42.134;24.718;2023-05-24T09:05:18;99426.41;;;27.11;45.72
11830;BME280;5972;42.134;24.718;2023-05-24T09:07:48;99419.25;;;27.41;45.18
11830;BME280;5972;42.134;24.718;2023-05-24T09:10:18;99420.97;;;27.47;45.21
11830;BME280;5972;42.134;24.718;2023-05-24T09:12:47;99419.31;;;27.77;44.58
11830;BME280;5972;42.134;24.718;2023-05-24T09:15:15;99401.38;;;27.60;43.41
11830;BME280;5972;42.134;24.718;2023-05-24T09:17:42;99417.06;;;27.36;43.38
11830;BME280;5972;42.134;24.718;2023-05-24T09:20:10;99417.13;;;27.63;42.55
11830;BME280;5972;42.134;24.718;2023-05-24T09:22:37;99422.38;;;27.88;41.53
11830;BME280;5972;42.134;24.718;2023-05-24T09:25:07;99407.88;;;27.84;42.07
11830;BME280;5972;42.134;24.718;2023-05-24T09:27:35;99418.53;;;27.77;41.50
11830;BME280;5972;42.134;24.718;2023-05-24T09:30:05;99414.66;;;27.65;41.36
11830;BME280;5972;42.134;24.718;2023-05-24T09:32:34;99409.72;;;27.69;41.35
11830;BME280;5972;42.134;24.718;2023-05-24T09:35:01;99403.53;;;27.65;40.54
11830;BME280;5972;42.134;24.718;2023-05-24T09:37:27;99407.25;;;27.53;39.10
11830;BME280;5972;42.134;24.718;2023-05-24T09:39:54;99407.97;;;27.35;39.12
11830;BME280;5972;42.134;24.718;2023-05-24T09:42:23;99402.19;;;27.20;40.44
11830;BME280;5972;42.134;24.718;2023-05-24T09:44:59;99403.63;;;27.25;40.31
11830;BME280;5972;42.134;24.718;2023-05-24T09:47:29;99407.34;;;27.40;38.56
11830;BME280;5972;42.134;24.718;2023-05-24T09:49:56;99405.19;;;27.35;39.46
11830;BME280;5972;42.134;24.718;2023-05-24T09:52:22;99404.56;;;27.40;38.74
11830;BME280;5972;42.134;24.718;2023-05-24T09:54:50;99361.97;;;27.34;37.99
11830;BME280;5972;42.134;24.718;2023-05-24T09:57:16;99405.25;;;27.62;36.63
11830;BME280;5972;42.134;24.718;2023-05-24T09:59:43;99398.31;;;27.58;38.39
11830;BME280;5972;42.134;24.718;2023-05-24T10:02:11;99401.88;;;26.69;38.84
11830;BME280;5972;42.134;24.718;2023-05-24T10:04:38;99397.78;;;26.92;38.66
11830;BME280;5972;42.134;24.718;2023-05-24T10:07:06;99389.75;;;26.54;39.90
11830;BME280;5972;42.134;24.718;2023-05-24T10:09:33;99387.38;;;27.14;38.99
11830;BME280;5972;42.134;24.718;2023-05-24T10:12:01;99393.97;;;27.57;39.36
11830;BME280;5972;42.134;24.718;2023-05-24T10:14:31;99393.97;;;27.93;39.72
11830;BME280;5972;42.134;24.718;2023-05-24T10:17:00;99396.28;;;27.77;38.69
11830;BME280;5972;42.134;24.718;2023-05-24T10:19:29;99388.09;;;27.73;38.96
11830;BME280;5972;42.134;24.718;2023-05-24T10:21:57;99383.94;;;28.14;39.03
11830;BME280;5972;42.134;24.718;2023-05-24T10:24:30;99379.84;;;27.42;39.26
11830;BME280;5972;42.134;24.718;2023-05-24T10:26:58;99388.88;;;28.19;39.28
11830;BME280;5972;42.134;24.718;2023-05-24T10:29:35;99384.09;;;28.20;37.45
11830;BME280;5972;42.134;24.718;2023-05-24T10:32:06;99376.84;;;28.55;36.55
11830;BME280;5972;42.134;24.718;2023-05-24T10:34:36;99377.59;;;28.74;35.10
11830;BME280;5972;42.134;24.718;2023-05-24T10:37:04;99370.91;;;28.80;35.25
11830;BME280;5972;42.134;24.718;2023-05-24T10:39:32;99366.72;;;28.85;35.66
11830;BME280;5972;42.134;24.718;2023-05-24T10:42:01;99380.38;;;28.65;36.04
11830;BME280;5972;42.134;24.718;2023-05-24T10:44:28;99358.72;;;28.69;35.02
11830;BME280;5972;42.134;24.718;2023-05-24T10:47:07;99368.78;;;28.75;34.92
11830;BME280;5972;42.134;24.718;2023-05-24T10:49:36;99355.56;;;28.85;35.22
11830;BME280;5972;42.134;24.718;2023-05-24T10:52:07;99342.53;;;28.91;35.33
11830;BME280;5972;42.134;24.718;2023-05-24T10:54:34;99343.38;;;29.06;35.44
11830;BME280;5972;42.134;24.718;2023-05-24T10:57:03;99333.88;;;28.89;35.12
11830;BME280;5972;42.134;24.718;2023-05-24T10:59:33;99340.78;;;28.70;35.28
11830;BME280;5972;42.134;24.718;2023-05-24T11:02:03;99345.94;;;28.53;34.90
11830;BME280;5972;42.134;24.718;2023-05-24T11:04:31;99330.50;;;28.43;35.30
11830;BME280;5972;42.134;24.718;2023-05-24T11:07:05;99333.88;;;28.56;35.55
11830;BME280;5972;42.134;24.718;2023-05-24T11:09:34;99342.63;;;28.73;37.57
11830;BME280;5972;42.134;24.718;2023-05-24T11:12:02;99334.84;;;28.86;36.13
11830;BME280;5972;42.134;24.718;2023-05-24T11:14:34;99336.66;;;28.56;36.45
11830;BME280;5972;42.134;24.718;2023-05-24T11:17:01;99321.09;;;27.53;38.22
11830;BME280;5972;42.134;24.718;2023-05-24T11:19:31;99340.97;;;27.97;36.17
11830;BME280;5972;42.134;24.718;2023-05-24T11:22:01;99331.41;;;28.49;35.07
11830;BME280;5972;42.134;24.718;2023-05-24T11:24:29;99330.19;;;28.50;34.88
11830;BME280;5972;42.134;24.718;2023-05-24T11:26:57;99327.13;;;28.81;34.96
11830;BME280;5972;42.134;24.718;2023-05-24T11:29:24;99331.03;;;28.98;35.23
11830;BME280;5972;42.134;24.718;2023-05-24T11:31:52;99324.47;;;29.10;35.01
11830;BME280;5972;42.134;24.718;2023-05-24T11:34:19;99323.41;;;29.08;34.74
11830;BME280;5972;42.134;24.718;2023-05-24T11:36:48;99322.69;;;28.98;32.96
11830;BME280;5972;42.134;24.718;2023-05-24T11:39:16;99325.31;;;28.69;32.24
11830;BME280;5972;42.134;24.718;2023-05-24T11:41:46;99308.75;;;28.65;33.88
11830;BME280;5972;42.134;24.718;2023-05-24T11:44:16;99322.81;;;28.71;33.26
11830;BME280;5972;42.134;24.718;2023-05-24T11:46:45;99319.94;;;28.56;32.18
11830;BME280;5972;42.134;24.718;2023-05-24T11:49:13;99317.06;;;28.41;32.81
11830;BME280;5972;42.134;24.718;2023-05-24T11:51:40;99323.69;;;28.44;32.24
11830;BME280;5972;42.134;24.718;2023-05-24T11:54:07;99311.25;;;28.21;33.19
11830;BME280;5972;42.134;24.718;2023-05-24T11:56:35;99306.97;;;28.02;33.67
11830;BME280;5972;42.134;24.718;2023-05-24T11:59:13;99311.06;;;28.34;33.33
11830;BME280;5972;42.134;24.718;2023-05-24T12:01:41;99312.53;;;28.53;33.54
11830;BME280;5972;42.134;24.718;2023-05-24T12:04:08;99303.88;;;28.51;36.21
11830;BME280;5972;42.134;24.718;2023-05-24T12:06:37;99309.44;;;28.00;37.98
11830;BME280;5972;42.134;24.718;2023-05-24T12:09:05;99301.09;;;28.00;37.95
11830;BME280;5972;42.134;24.718;2023-05-24T12:11:37;99289.38;;;27.87;38.30
11830;BME280;5972;42.134;24.718;2023-05-24T12:14:09;99288.78;;;27.46;39.24
11830;BME280;5972;42.134;24.718;2023-05-24T12:16:38;99274.81;;;26.73;40.49
11830;BME280;5972;42.134;24.718;2023-05-24T12:19:05;99277.78;;;26.88;40.48
11830;BME280;5972;42.134;24.718;2023-05-24T12:21:32;99281.38;;;27.34;39.99
11830;BME280;5972;42.134;24.718;2023-05-24T12:24:09;99256.06;;;27.05;39.52
11830;BME280;5972;42.134;24.718;2023-05-24T12:26:39;99269.66;;;27.30;38.38
11830;BME280;5972;42.134;24.718;2023-05-24T12:29:06;99269.88;;;26.68;39.05
11830;BME280;5972;42.134;24.718;2023-05-24T12:31:40;99268.41;;;26.95;38.80
11830;BME280;5972;42.134;24.718;2023-05-24T12:34:10;99266.41;;;27.22;38.36
11830;BME280;5972;42.134;24.718;2023-05-24T12:36:37;99255.59;;;27.15;39.14
11830;BME280;5972;42.134;24.718;2023-05-24T12:39:15;99263.94;;;27.43;38.79
11830;BME280;5972;42.134;24.718;2023-05-24T12:41:43;99272.13;;;27.55;38.50
11830;BME280;5972;42.134;24.718;2023-05-24T12:44:10;99273.50;;;27.78;38.05
11830;BME280;5972;42.134;24.718;2023-05-24T12:46:37;99271.88;;;28.04;37.99
11830;BME280;5972;42.134;24.718;2023-05-24T12:49:05;99277.94;;;28.03;37.42
11830;BME280;5972;42.134;24.718;2023-05-24T12:51:32;99273.31;;;27.91;37.42
11830;BME280;5972;42.134;24.718;2023-05-24T12:53:59;99276.56;;;27.89;37.84
11830;BME280;5972;42.134;24.718;2023-05-24T12:56:29;99278.44;;;27.65;37.29
11830;BME280;5972;42.134;24.718;2023-05-24T12:58:56;99274.91;;;27.74;37.68
11830;BME280;5972;42.134;24.718;2023-05-24T13:01:22;99271.50;;;27.69;37.66
11830;BME280;5972;42.134;24.718;2023-05-24T13:03:49;99278.28;;;27.59;37.43
11830;BME280;5972;42.134;24.718;2023-05-24T13:06:18;99278.72;;;27.85;37.96